Time;durP1;ratioP1;P1;durP2;ratioP2;P2;SDS_P1;SDS_P2;PMS_P1;PMS_P2;Temp;Humidity;BMP_temperature;BMP_pressure;BME280_temperature;BME280_humidity;BME280_pressure;Samples;Min_cycle;Max_cycle;Signal;HPM_P1;HPM_P2
2021/06/01 00:04:57;;;;;;;12.60;8.07;;;;;;;7.47;69.60;99039.16;261638;1101;24084;-71
2021/06/01 00:10:43;;;;;;;15.63;7.87;;;;;;;7.41;69.66;99039.39;262357;1098;22807;-71
2021/06/01 00:16:24;;;;;;;14.90;8.47;;;;;;;7.34;70.08;99040.44;262416;1098;22879;-71
2021/06/01 00:22:30;;;;;;;;;;;;;;;;;;;;;
2021/06/01 00:27:51;;;;;;;12.93;8.50;;;;;;;7.16;69.97;99027.55;262390;1098;22806;-71
2021/06/01 00:33:32;;;;;;;13.37;8.60;;;;;;;7.07;70.46;99026.45;262530;1093;22850;-70
2021/06/01 00:39:39;;;;;;;13.30;8.37;;;;;;;7.00;70.82;99029.34;262475;1098;22932;-71
2021/06/01 00:45:26;;;;;;;13.27;8.10;;;;;;;6.97;71.48;99029.87;262530;1098;23223;-72
2021/06/01 00:50:42;;;;;;;12.87;8.93;;;;;;;6.91;71.80;99028.22;261667;1093;26040;-71
2021/06/01 00:55:51;;;;;;;11.93;8.53;;;;;;;6.82;71.57;99026.03;261850;1094;22860;-72
2021/06/01 01:01:26;;;;;;;13.47;8.73;;;;;;;6.72;71.72;99027.85;262266;1093;26047;-71
2021/06/01 01:07:34;;;;;;;14.40;8.40;;;;;;;6.67;72.49;99015.29;262233;1093;22775;-71
2021/06/01 01:21:03;;;;;;;16.23;8.07;;;;;;;6.43;72.88;99013.00;261954;1093;26044;-70
2021/06/01 01:27:14;;;;;;;12.20;8.03;;;;;;;6.29;72.74;99025.92;261910;1098;22826;-71
2021/06/01 01:33:25;;;;;;;13.77;8.47;;;;;;;6.25;73.15;99024.83;262094;1098;22746;-71
2021/06/01 01:39:09;;;;;;;13.17;8.63;;;;;;;6.29;73.86;99031.24;262150;1098;23464;-72
2021/06/01 01:44:47;;;;;;;15.00;8.20;;;;;;;6.25;73.55;99021.38;262593;1093;22846;-71
2021/06/01 01:51:00;;;;;;;;;;;;;;;;;;;;;
2021/06/01 01:56:46;;;;;;;11.83;7.77;;;;;;;6.19;73.60;99020.53;262357;1093;22803;-71
2021/06/01 02:02:40;;;;;;;10.73;7.47;;;;;;;6.09;73.18;99005.28;262350;1098;22744;-71
2021/06/01 02:14:45;;;;;;;15.45;8.95;;;;;;;5.89;73.53;99005.06;262703;1098;22853;-70
2021/06/01 02:20:55;;;;;;;12.47;8.37;;;;;;;5.86;74.10;99011.67;261361;1093;22812;-71
2021/06/01 02:27:08;;;;;;;18.40;9.07;;;;;;;5.77;74.01;98998.05;261888;1093;22907;-72
2021/06/01 02:33:04;;;;;;;;;;;;;;;;;;;;;
2021/06/01 02:39:28;;;;;;;;;;;;;;;;;;;;;
2021/06/01 02:45:04;;;;;;;13.10;8.13;;;;;;;5.64;75.14;98995.80;261644;1101;22790;-71
2021/06/01 02:51:15;;;;;;;12.13;7.77;;;;;;;5.57;74.93;98995.98;262456;1098;24717;-71
2021/06/01 02:56:52;;;;;;;12.10;7.57;;;;;;;5.49;74.87;98999.09;262650;1098;22747;-72
2021/06/01 03:02:30;;;;;;;;;;;;;;;;;;;;;
2021/06/01 03:08:28;;;;;;;18.23;9.87;;;;;;;5.48;75.59;98989.50;262578;1098;22742;-71
2021/06/01 03:14:20;;;;;;;16.63;10.07;;;;;;;5.56;75.94;98996.23;262220;1098;22763;-70
2021/06/01 03:20:00;;;;;;;14.50;9.30;;;;;;;5.65;75.68;99003.52;262481;1093;22797;-71
2021/06/01 03:25:45;;;;;;;14.67;9.53;;;;;;;5.62;75.37;99004.02;262289;1093;23733;-71
2021/06/01 03:31:41;;;;;;;17.03;9.90;;;;;;;5.56;75.15;98997.03;262254;1093;22758;-70
2021/06/01 03:36:59;;;;;;;20.30;10.63;;;;;;;5.47;75.27;98994.02;261884;1093;24353;-71
2021/06/01 03:49:30;;;;;;;;;;;;;;;;;;;;;
2021/06/01 03:56:01;;;;;;;;;;;;;;;;;;;;;
2021/06/01 04:01:55;;;;;;;22.13;11.73;;;;;;;5.41;76.13;98994.20;262591;1092;27468;-71
2021/06/01 04:07:36;;;;;;;25.50;13.00;;;;;;;5.62;76.43;99001.37;262280;1093;26404;-71
2021/06/01 04:13:31;;;;;;;;;;;;;;;;;;;;;
2021/06/01 04:20:05;;;;;;;22.10;12.60;;;;;;;6.14;76.29;98996.53;262631;1098;22756;-72
2021/06/01 04:25:55;;;;;;;;;;;;;;;;;;;;;
2021/06/01 04:31:22;;;;;;;17.17;10.30;;;;;;;6.54;76.12;98994.45;262428;1098;22809;-71
2021/06/01 04:37:15;;;;;;;17.30;9.17;;;;;;;6.73;75.91;98992.16;262497;1098;22765;-71
2021/06/01 04:42:57;;;;;;;13.70;9.03;;;;;;;6.96;75.47;98994.42;262648;1093;22879;-71
2021/06/01 04:48:36;;;;;;;13.25;8.90;;;;;;;7.20;75.70;98988.66;262561;1093;22740;-72
2021/06/01 04:54:06;;;;;;;12.73;7.77;;;;;;;7.45;75.70;99000.48;262624;1093;25989;-71
2021/06/01 04:59:40;;;;;;;;;;;;;;;;;;;;;
2021/06/01 05:05:01;;;;;;;12.70;8.50;;;;;;;8.01;75.40;99005.92;262544;1098;22861;-71
2021/06/01 05:10:14;;;;;;;11.27;8.67;;;;;;;8.33;74.88;99007.54;262561;1093;22772;-71
2021/06/01 05:15:51;;;;;;;;;;;;;;;;;;;;;
2021/06/01 05:21:29;;;;;;;11.43;8.00;;;;;;;8.93;74.30;99008.84;262632;1098;22764;-71
2021/06/01 05:26:51;;;;;;;11.27;8.27;;;;;;;9.31;74.50;99009.23;261539;1101;22898;-71
2021/06/01 05:32:10;;;;;;;12.80;8.60;;;;;;;9.70;74.06;99006.63;262226;1093;26639;-72
2021/06/01 05:38:32;;;;;;;11.97;8.40;;;;;;;10.21;73.32;99015.38;261666;1093;25970;-71
2021/06/01 05:50:54;;;;;;;;;;;;;;;;;;;;;
2021/06/01 05:57:41;;;;;;;12.03;8.93;;;;;;;11.81;70.09;99015.28;262403;1098;22849;-70
2021/06/01 06:04:31;;;;;;;;;;;;;;;;;;;;;
2021/06/01 06:10:38;;;;;;;10.90;7.80;;;;;;;12.62;68.23;99027.75;263342;1093;22914;-70
2021/06/01 06:16:59;;;;;;;;;;;;;;;;;;;;;
2021/06/01 06:23:41;;;;;;;;;;;;;;;;;;;;;
2021/06/01 06:29:55;;;;;;;13.30;8.30;;;;;;;13.57;65.84;99031.08;264466;1093;26231;-69
2021/06/01 06:36:00;;;;;;;;;;;;;;;;;;;;;
2021/06/01 06:42:17;;;;;;;14.95;8.00;;;;;;;14.00;64.67;99033.38;265509;1098;22765;-71
2021/06/01 06:48:41;;;;;;;10.00;7.05;;;;;;;14.14;63.34;99034.11;263293;1093;22845;-71
2021/06/01 06:54:15;;;;;;;11.25;7.35;;;;;;;14.30;61.99;99025.69;263036;1098;22775;-70
2021/06/01 07:07:17;;;;;;;;;;;;;;;;;;;;;
2021/06/01 07:12:44;;;;;;;;;;;;;;;;;;;;;
2021/06/01 07:19:08;;;;;;;11.57;8.43;;;;;;;15.35;59.54;99031.61;262595;1098;22764;-71
2021/06/01 07:24:24;;;;;;;8.90;7.40;;;;;;;15.72;58.45;99040.23;262340;1093;23519;-71
2021/06/01 07:29:42;;;;;;;9.40;7.20;;;;;;;15.97;57.87;99029.81;262962;1098;22920;-71
2021/06/01 07:35:02;;;;;;;9.15;5.80;;;;;;;16.25;56.54;99036.45;263291;1093;22800;-70
2021/06/01 07:40:26;;;;;;;5.80;4.80;;;;;;;16.44;55.75;99038.05;263368;1093;22761;-70
2021/06/01 07:45:40;;;;;;;8.70;5.60;;;;;;;16.56;55.33;99040.08;262969;1098;22736;-70
2021/06/01 07:51:20;;;;;;;9.00;6.30;;;;;;;16.42;55.43;99034.85;262631;1093;22883;-71
2021/06/01 07:56:48;;;;;;;7.40;4.90;;;;;;;16.43;55.15;99039.16;262500;1094;22793;-72
2021/06/01 08:02:03;;;;;;;6.03;4.53;;;;;;;16.48;54.98;99030.88;262675;1093;27011;-71
2021/06/01 08:07:17;;;;;;;7.15;4.75;;;;;;;16.48;54.56;99035.48;262903;1093;22788;-71
2021/06/01 08:12:57;;;;;;;6.15;4.55;;;;;;;16.62;54.91;99027.17;262422;1098;22764;-71
2021/06/01 08:18:52;;;;;;;5.30;4.00;;;;;;;16.94;54.16;99025.83;262506;1098;22939;-71
2021/06/01 08:24:41;;;;;;;;;;;;;;;;;;;;;
2021/06/01 08:30:42;;;;;;;3.70;3.40;;;;;;;17.47;51.78;99015.53;262275;1093;22796;-72
2021/06/01 08:36:33;;;;;;;3.95;3.55;;;;;;;17.75;51.30;99018.55;262655;1098;22832;-72
2021/06/01 08:41:58;;;;;;;3.40;3.10;;;;;;;17.78;50.36;99017.07;262739;1093;25861;-70
2021/06/01 08:47:42;;;;;;;5.03;2.70;;;;;;;17.84;49.74;99007.64;262614;1098;24290;-70
2021/06/01 08:53:24;;;;;;;2.90;2.60;;;;;;;17.98;48.95;99001.16;262543;1098;23034;-69
2021/06/01 08:58:34;;;;;;;3.70;2.98;;;;;;;18.16;48.07;98997.20;262564;1098;24275;-71
2021/06/01 09:04:50;;;;;;;3.67;3.00;;;;;;;18.37;48.17;98996.34;262683;1094;22841;-71
2021/06/01 09:11:04;;;;;;;3.15;2.55;;;;;;;18.90;46.46;98994.67;262868;1097;22843;-70
2021/06/01 09:22:50;;;;;;;3.93;2.70;;;;;;;19.00;42.40;98989.91;262547;1098;22745;-70
2021/06/01 09:28:42;;;;;;;;;;;;;;;;;;;;;
2021/06/01 09:35:37;;;;;;;4.80;3.03;;;;;;;19.65;43.03;98982.58;262561;1098;22817;-70
2021/06/01 09:41:55;;;;;;;;;;;;;;;;;;;;;
2021/06/01 09:47:16;;;;;;;4.00;3.15;;;;;;;20.66;41.54;98974.45;262617;1098;22876;-70
2021/06/01 09:52:58;;;;;;;5.68;3.50;;;;;;;20.96;41.69;98967.79;262579;1093;22743;-70
2021/06/01 09:58:45;;;;;;;3.18;2.85;;;;;;;21.50;40.39;98966.25;263076;1098;22757;-71
2021/06/01 10:04:21;;;;;;;3.85;2.70;;;;;;;21.73;40.43;98960.92;263047;1098;22930;-70
2021/06/01 10:09:47;;;;;;;3.58;2.85;;;;;;;21.73;38.75;98962.84;263269;1098;22738;-70
2021/06/01 10:15:15;;;;;;;;;;;;;;;;;;;;;
2021/06/01 10:21:21;;;;;;;7.07;2.40;;;;;;;21.03;38.19;98962.51;263085;1093;22756;-72
2021/06/01 10:27:01;;;;;;;;;;;;;;;;;;;;;
2021/06/01 10:32:37;;;;;;;5.00;2.40;;;;;;;20.86;38.69;98963.67;263310;1092;26207;-72
2021/06/01 10:50:58;;;;;;;5.68;4.55;;;;;;;21.46;38.22;98958.02;262259;1098;23548;-72
2021/06/01 10:55:58;;;;;;;5.17;4.03;;;;;;;21.53;37.15;98946.48;262727;1098;22826;-73
2021/06/01 11:07:39;;;;;;;3.28;2.70;;;;;;;21.48;37.24;98941.30;262545;1093;24162;-72
2021/06/01 11:13:06;;;;;;;3.18;2.50;;;;;;;21.34;35.61;98928.16;262383;1093;26263;-71
2021/06/01 11:18:38;;;;;;;3.88;2.73;;;;;;;20.81;36.48;98928.53;262909;1093;26319;-72
2021/06/01 11:36:57;;;;;;;2.53;2.33;;;;;;;21.15;37.06;98932.44;262526;1098;22761;-72
2021/06/01 12:11:54;;;;;;;3.20;2.50;;;;;;;20.56;37.33;98923.25;262383;1093;25867;-74
2021/06/01 12:17:49;;;;;;;6.28;2.98;;;;;;;20.40;37.85;98911.56;262454;1098;22777;-72
2021/06/01 12:23:06;;;;;;;2.50;2.30;;;;;;;20.40;38.26;98919.72;262675;1093;22790;-74
2021/06/01 12:34:16;;;;;;;;;;;;;;;;;;;;;
2021/06/01 13:30:12;;;;;;;3.60;2.80;;;;;;;22.93;34.61;98882.70;262017;1099;22936;-72
2021/06/01 13:30:23;;;;;;;3.65;3.10;;;;;;;22.98;34.48;98879.63;262347;1093;22840;-73
2021/06/01 13:47:21;;;;;;;3.20;2.97;;;;;;;22.81;34.82;98891.11;262752;1093;22912;-71
2021/06/01 13:55:05;;;;;;;6.20;4.87;;;;;;;22.87;33.98;98884.97;262676;1098;22765;-71
2021/06/01 13:59:08;;;;;;;7.68;4.70;;;;;;;22.83;34.44;98884.13;263298;1093;25944;-71
2021/06/01 14:21:52;;;;;;;3.88;3.00;;;;;;;22.16;33.80;98869.01;262541;1098;22770;-70
2021/06/01 16:11:38;;;;;;;5.10;3.88;;;;;;;20.94;34.22;98834.70;262705;1098;25118;-69
2021/06/01 17:06:14;;;;;;;4.53;3.47;;;;;;;19.10;36.74;98840.14;261785;1101;22825;-70
2021/06/01 17:11:42;;;;;;;3.90;2.90;;;;;;;18.90;37.44;98844.58;261822;1101;22757;-71
2021/06/01 17:17:33;;;;;;;4.30;2.85;;;;;;;18.68;37.53;98843.91;261827;1101;22830;-70
2021/06/01 17:40:17;;;;;;;3.40;3.10;;;;;;;18.04;39.29;98837.23;261807;1093;24330;-71
2021/06/01 17:45:49;;;;;;;4.60;3.10;;;;;;;17.89;39.40;98841.33;261732;1093;23296;-70
2021/06/01 17:51:05;;;;;;;;;;;;;;;;;;;;;
2021/06/01 18:02:44;;;;;;;3.80;2.70;;;;;;;17.64;39.82;98843.96;262188;1101;22754;-71
2021/06/01 18:08:23;;;;;;;7.50;2.70;;;;;;;17.57;40.30;98838.30;261790;1096;22794;-72
2021/06/01 19:11:50;;;;;;;20.85;13.70;;;;;;;16.62;44.59;98886.55;261666;1096;22740;-72
2021/06/01 19:50:00;;;;;;;15.65;10.25;;;;;;;16.02;48.69;98929.66;262642;1093;26002;-70
2021/06/01 19:55:24;;;;;;;16.15;11.20;;;;;;;15.90;49.38;98925.70;262827;1093;22734;-72
2021/06/01 20:00:34;;;;;;;18.50;11.77;;;;;;;15.81;50.08;98922.23;262482;1093;23369;-71
2021/06/01 20:05:41;;;;;;;17.68;12.23;;;;;;;15.73;50.55;98926.48;263033;1094;22919;-71
2021/06/01 20:11:22;;;;;;;17.45;11.90;;;;;;;15.65;51.04;98923.80;262836;1092;25847;-71
2021/06/01 20:17:08;;;;;;;22.45;14.30;;;;;;;15.53;52.27;98935.25;262702;1093;22804;-71
2021/06/01 20:22:13;;;;;;;18.53;13.60;;;;;;;15.37;52.55;98924.11;262006;1098;22784;-70
2021/06/01 20:27:22;;;;;;;21.77;14.10;;;;;;;15.27;52.87;98930.61;262550;1093;25867;-73
2021/06/01 20:33:12;;;;;;;18.90;13.85;;;;;;;15.18;53.41;98927.90;262645;1098;22765;-71
2021/06/01 20:38:37;;;;;;;20.95;13.85;;;;;;;15.09;53.71;98935.17;262423;1093;22747;-71
2021/06/01 20:49:25;;;;;;;20.70;14.60;;;;;;;14.97;54.17;98929.59;262429;1093;24475;-71
2021/06/01 20:55:43;;;;;;;23.43;15.20;;;;;;;14.92;54.27;98932.45;262679;1098;22907;-71
2021/06/01 21:01:27;;;;;;;;;;;;;;;;;;;;;
2021/06/01 21:07:20;;;;;;;24.53;14.87;;;;;;;14.75;54.92;98935.89;262842;1093;22761;-71
2021/06/01 21:12:30;;;;;;;19.55;14.85;;;;;;;14.68;55.01;98944.42;262415;1093;25852;-71
2021/06/01 21:17:40;;;;;;;21.00;13.30;;;;;;;14.63;55.36;98945.33;262365;1093;22770;-71
2021/06/01 21:23:00;;;;;;;22.75;14.85;;;;;;;14.65;55.71;98939.66;262039;1094;22774;-71
2021/06/01 21:28:16;;;;;;;19.75;13.40;;;;;;;14.67;55.91;98937.43;262868;1093;26206;-71
2021/06/01 21:34:03;;;;;;;22.73;14.10;;;;;;;14.63;55.91;98949.94;262710;1093;22816;-73
2021/06/01 21:39:20;;;;;;;18.27;12.47;;;;;;;14.55;56.08;98948.78;262533;1098;22906;-69
2021/06/01 21:44:40;;;;;;;21.83;13.50;;;;;;;14.46;56.18;98948.72;262329;1098;22758;-70
2021/06/01 21:49:51;;;;;;;17.90;12.75;;;;;;;14.41;56.23;98951.56;262384;1098;22760;-71
2021/06/01 21:55:08;;;;;;;19.85;13.35;;;;;;;14.37;56.36;98961.38;262287;1093;22744;-71
2021/06/01 22:00:31;;;;;;;21.77;13.67;;;;;;;14.32;56.27;98961.49;262350;1098;22764;-70
2021/06/01 22:05:35;;;;;;;;;;;;;;;14.26;56.55;98960.83;262507;1098;22797;-71
2021/06/01 22:10:49;;;;;;;19.07;12.20;;;;;;;14.20;56.39;98965.55;262448;1098;21516;-71
2021/06/01 22:16:03;;;;;;;20.77;12.17;;;;;;;14.18;56.83;98962.35;262468;1093;27003;-71
2021/06/01 22:21:28;;;;;;;29.65;15.65;;;;;;;14.23;56.59;98961.45;261811;1098;22775;-71
2021/06/01 22:26:56;;;;;;;32.55;18.90;;;;;;;14.29;56.34;98960.20;262710;1093;22812;-70
2021/06/01 22:32:06;;;;;;;33.93;19.23;;;;;;;14.33;56.40;98961.18;262328;1093;23570;-72
2021/06/01 22:37:26;;;;;;;36.77;19.07;;;;;;;14.33;56.01;98960.39;262403;1093;26120;-72
2021/06/01 22:42:43;;;;;;;28.38;15.78;;;;;;;14.28;56.04;98957.81;262803;1098;23379;-71
2021/06/01 22:47:58;;;;;;;20.40;12.30;;;;;;;14.18;55.82;98954.27;262683;1098;22970;-70
2021/06/01 22:53:13;;;;;;;19.00;11.40;;;;;;;14.01;56.25;98965.73;262341;1098;22770;-71
2021/06/01 22:58:19;;;;;;;17.10;10.33;;;;;;;13.85;56.14;98972.57;262661;1093;26196;-71
2021/06/01 23:03:23;;;;;;;13.70;10.13;;;;;;;13.72;56.28;98976.91;262611;1093;22726;-72
2021/06/01 23:08:34;;;;;;;15.23;9.97;;;;;;;13.60;56.70;98982.02;262741;1093;22932;-71
2021/06/01 23:13:59;;;;;;;14.70;9.70;;;;;;;13.49;56.60;98979.56;262637;1093;22812;-70
2021/06/01 23:19:08;;;;;;;18.00;10.10;;;;;;;13.42;57.74;98986.47;261326;1098;22939;-71
2021/06/01 23:24:28;;;;;;;17.87;11.57;;;;;;;13.36;58.36;98983.09;261490;1093;23029;-70
2021/06/01 23:29:45;;;;;;;16.85;10.80;;;;;;;13.26;58.45;98984.07;262551;1093;26975;-75
2021/06/01 23:34:54;;;;;;;16.30;10.55;;;;;;;13.17;58.42;98992.03;262568;1098;22883;-71
2021/06/01 23:40:08;;;;;;;15.70;10.70;;;;;;;13.08;58.75;98988.47;262531;1098;25244;-74
2021/06/01 23:45:19;;;;;;;14.57;10.00;;;;;;;12.99;59.14;98990.25;262374;1098;22709;-71
2021/06/01 23:50:33;;;;;;;16.43;9.67;;;;;;;12.91;59.44;98994.41;261529;1093;26180;-71
2021/06/01 23:56:01;;;;;;;;;;;;;;;;;;;;;
